Time;durP1;ratioP1;P1;durP2;ratioP2;P2;SDS_P1;SDS_P2;PMS_P1;PMS_P2;Temp;Humidity;BMP_temperature;BMP_pressure;BME280_temperature;BME280_humidity;BME280_pressure;Samples;Min_cycle;Max_cycle;Signal;HPM_P1;HPM_P2
2021/08/12 00:00:25;;;;;;;13.63;12.23;;;;;;;;;;5133298;27;20236;-78
2021/08/12 00:02:52;;;;;;;16.50;12.33;;;;;;;;;;5133411;27;20525;-78
2021/08/12 00:05:19;;;;;;;13.97;11.87;;;;;;;;;;5133390;27;20224;-77
2021/08/12 00:07:47;;;;;;;16.80;11.57;;;;;;;;;;5133519;27;20284;-77
2021/08/12 00:10:14;;;;;;;17.37;12.03;;;;;;;;;;5132697;27;20235;-77
2021/08/12 00:12:42;;;;;;;14.57;12.07;;;;;;;;;;5136147;27;20207;-78
2021/08/12 00:15:10;;;;;;;15.17;11.57;;;;;;;;;;5136710;27;20606;-78
2021/08/12 00:17:37;;;;;;;13.93;11.67;;;;;;;;;;5137066;27;20631;-77
2021/08/12 00:20:05;;;;;;;15.00;11.87;;;;;;;;;;5136543;27;20284;-77
2021/08/12 00:22:32;;;;;;;14.23;11.90;;;;;;;;;;5136965;27;20300;-78
2021/08/12 00:24:59;;;;;;;17.60;11.90;;;;;;;;;;5136269;27;20633;-77
2021/08/12 00:27:26;;;;;;;14.30;11.87;;;;;;;;;;5136561;27;20740;-78
2021/08/12 00:29:55;;;;;;;14.47;11.50;;;;;;;;;;5136492;27;20589;-77
2021/08/12 00:32:22;;;;;;;13.93;12.43;;;;;;;;;;5136817;27;20283;-78
2021/08/12 00:34:49;;;;;;;15.53;11.93;;;;;;;;;;5136750;27;20193;-77
2021/08/12 00:37:16;;;;;;;15.70;12.37;;;;;;;;;;5136664;27;20284;-77
2021/08/12 00:39:43;;;;;;;13.50;11.53;;;;;;;;;;5136158;27;20196;-77
2021/08/12 00:42:11;;;;;;;13.27;11.50;;;;;;;;;;5136466;27;20193;-78
2021/08/12 00:44:38;;;;;;;12.33;11.10;;;;;;;;;;5136469;27;20291;-78
2021/08/12 00:47:07;;;;;;;14.37;11.93;;;;;;;;;;5136320;27;20292;-77
2021/08/12 00:49:37;;;;;;;14.53;11.93;;;;;;;;;;5135753;27;20759;-77
2021/08/12 00:52:05;;;;;;;15.27;11.40;;;;;;;;;;5136085;27;20208;-78
2021/08/12 00:54:34;;;;;;;16.70;12.20;;;;;;;;;;5135704;27;20243;-78
2021/08/12 00:57:02;;;;;;;17.37;12.43;;;;;;;;;;5135218;27;20246;-77
2021/08/12 00:59:32;;;;;;;13.40;11.70;;;;;;;;;;5135802;27;20201;-78
2021/08/12 01:02:00;;;;;;;14.27;11.33;;;;;;;;;;5135690;27;20618;-77
2021/08/12 01:04:28;;;;;;;13.87;11.40;;;;;;;;;;5135974;27;20385;-78
2021/08/12 01:07:00;;;;;;;16.87;11.60;;;;;;;;;;5135910;27;20292;-78
2021/08/12 01:09:33;;;;;;;12.93;10.80;;;;;;;;;;5135225;27;20247;-78
2021/08/12 01:12:04;;;;;;;14.53;11.80;;;;;;;;;;5135743;27;20304;-77
2021/08/12 01:14:37;;;;;;;13.40;11.73;;;;;;;;;;5135591;27;20239;-77
2021/08/12 01:17:06;;;;;;;16.77;12.57;;;;;;;;;;5135755;27;20201;-78
2021/08/12 01:19:47;;;;;;;13.57;11.60;;;;;;;;;;5135708;27;20279;-77
2021/08/12 01:22:16;;;;;;;18.90;12.80;;;;;;;;;;5135675;27;20295;-78
2021/08/12 01:24:47;;;;;;;16.83;12.80;;;;;;;;;;5135181;27;20291;-77
2021/08/12 01:27:16;;;;;;;13.93;11.43;;;;;;;;;;5135753;27;20292;-77
2021/08/12 01:29:48;;;;;;;14.70;11.90;;;;;;;;;;5135442;27;20235;-78
2021/08/12 01:32:17;;;;;;;15.57;12.43;;;;;;;;;;5135713;27;20288;-78
2021/08/12 01:34:54;;;;;;;17.67;12.87;;;;;;;;;;5135244;27;20200;-78
2021/08/12 01:37:22;;;;;;;13.23;11.73;;;;;;;;;;5132953;27;20283;-78
2021/08/12 01:39:51;;;;;;;16.93;12.23;;;;;;;;;;5115044;28;20284;-77
2021/08/12 01:42:18;;;;;;;12.63;11.33;;;;;;;;;;5114817;28;20288;-78
2021/08/12 01:44:46;;;;;;;13.80;11.30;;;;;;;;;;5114864;28;20289;-78
2021/08/12 01:47:13;;;;;;;15.83;12.47;;;;;;;;;;5114902;28;20292;-78
2021/08/12 01:49:44;;;;;;;16.33;12.63;;;;;;;;;;5114893;28;20663;-78
2021/08/12 01:52:13;;;;;;;14.47;12.97;;;;;;;;;;5114551;28;20197;-78
2021/08/12 01:54:42;;;;;;;14.87;12.50;;;;;;;;;;5114488;28;20675;-78
2021/08/12 01:57:10;;;;;;;17.30;12.60;;;;;;;;;;5114900;28;20193;-78
2021/08/12 01:59:38;;;;;;;14.63;12.73;;;;;;;;;;5114784;28;20197;-78
2021/08/12 02:02:07;;;;;;;14.07;12.00;;;;;;;;;;5114500;28;20288;-78
2021/08/12 02:04:34;;;;;;;15.33;13.10;;;;;;;;;;5114694;28;20304;-78
2021/08/12 02:07:04;;;;;;;16.20;12.53;;;;;;;;;;5114033;28;20205;-77
2021/08/12 02:09:33;;;;;;;19.17;13.73;;;;;;;;;;5114193;28;20312;-78
2021/08/12 02:12:01;;;;;;;18.37;13.27;;;;;;;;;;5113977;28;20205;-77
2021/08/12 02:14:28;;;;;;;13.90;11.90;;;;;;;;;;5114313;28;20280;-78
2021/08/12 02:16:55;;;;;;;16.30;12.70;;;;;;;;;;5113747;28;20232;-77
2021/08/12 02:19:22;;;;;;;14.77;12.87;;;;;;;;;;5114101;28;20276;-77
2021/08/12 02:21:53;;;;;;;16.07;12.23;;;;;;;;;;5113676;28;20304;-77
2021/08/12 02:24:24;;;;;;;19.23;13.30;;;;;;;;;;5113800;28;20296;-77
2021/08/12 02:26:57;;;;;;;14.63;12.80;;;;;;;;;;5113732;28;20289;-78
2021/08/12 02:29:25;;;;;;;15.77;13.07;;;;;;;;;;5113633;28;20309;-77
2021/08/12 02:31:54;;;;;;;14.23;12.40;;;;;;;;;;5113884;28;20292;-77
2021/08/12 02:34:21;;;;;;;14.00;12.03;;;;;;;;;;5113018;28;20235;-78
2021/08/12 02:36:48;;;;;;;12.53;11.17;;;;;;;;;;5113406;28;20652;-77
2021/08/12 02:39:16;;;;;;;12.53;11.23;;;;;;;;;;5113416;28;20297;-78
2021/08/12 02:41:44;;;;;;;13.63;11.20;;;;;;;;;;5113178;28;20292;-78
2021/08/12 02:44:13;;;;;;;13.67;12.23;;;;;;;;;;5113667;28;20604;-78
2021/08/12 02:46:40;;;;;;;15.47;12.97;;;;;;;;;;5113582;28;20202;-78
2021/08/12 02:49:08;;;;;;;19.40;14.10;;;;;;;;;;5113388;28;20301;-78
2021/08/12 02:51:36;;;;;;;19.20;13.67;;;;;;;;;;5113293;28;20292;-78
2021/08/12 02:54:05;;;;;;;18.67;13.57;;;;;;;;;;5113341;28;20685;-78
2021/08/12 02:56:34;;;;;;;15.73;13.30;;;;;;;;;;5113348;28;20202;-78
2021/08/12 02:59:02;;;;;;;21.47;13.70;;;;;;;;;;5113345;28;20236;-78
2021/08/12 03:01:31;;;;;;;18.17;13.07;;;;;;;;;;5113023;27;20201;-78
2021/08/12 03:03:59;;;;;;;16.80;13.47;;;;;;;;;;5113406;28;20285;-77
2021/08/12 03:06:27;;;;;;;17.17;13.30;;;;;;;;;;5113282;28;20234;-77
2021/08/12 03:08:55;;;;;;;15.83;12.13;;;;;;;;;;5113439;28;20593;-77
2021/08/12 03:11:23;;;;;;;16.97;12.90;;;;;;;;;;5112902;28;20218;-77
2021/08/12 03:13:53;;;;;;;16.23;12.00;;;;;;;;;;5113227;28;20205;-77
2021/08/12 03:16:21;;;;;;;18.50;11.90;;;;;;;;;;5112991;28;20202;-77
2021/08/12 03:18:49;;;;;;;15.23;11.27;;;;;;;;;;5112607;28;20233;-77
2021/08/12 03:21:17;;;;;;;14.00;12.10;;;;;;;;;;5113037;28;20944;-77
2021/08/12 03:23:44;;;;;;;15.40;11.70;;;;;;;;;;5112716;28;20629;-77
2021/08/12 03:26:12;;;;;;;15.90;11.47;;;;;;;;;;5113158;28;20304;-76
2021/08/12 03:28:39;;;;;;;15.60;11.70;;;;;;;;;;5112757;28;20307;-78
2021/08/12 03:31:06;;;;;;;16.03;11.70;;;;;;;;;;5112818;28;20221;-78
2021/08/12 03:33:34;;;;;;;13.13;11.73;;;;;;;;;;5112788;28;20372;-77
2021/08/12 03:36:02;;;;;;;13.40;11.67;;;;;;;;;;5112743;28;20229;-77
2021/08/12 03:38:29;;;;;;;14.50;11.87;;;;;;;;;;5113584;28;20201;-77
2021/08/12 03:40:56;;;;;;;14.83;11.83;;;;;;;;;;5113228;28;20202;-78
2021/08/12 03:43:24;;;;;;;16.13;11.73;;;;;;;;;;5112821;28;20293;-77
2021/08/12 03:45:51;;;;;;;15.63;11.60;;;;;;;;;;5113177;28;20193;-77
2021/08/12 03:48:18;;;;;;;15.53;11.50;;;;;;;;;;5116369;28;20285;-77
2021/08/12 03:50:46;;;;;;;14.77;11.47;;;;;;;;;;5117065;28;20253;-77
2021/08/12 03:53:14;;;;;;;13.27;11.47;;;;;;;;;;5116777;28;20316;-78
2021/08/12 03:55:41;;;;;;;12.83;11.13;;;;;;;;;;5117193;28;20288;-77
2021/08/12 03:58:08;;;;;;;14.70;11.10;;;;;;;;;;5116705;28;20233;-77
2021/08/12 04:00:36;;;;;;;12.90;10.40;;;;;;;;;;5116640;28;20280;-77
2021/08/12 04:03:03;;;;;;;14.37;10.80;;;;;;;;;;5116548;28;20289;-77
2021/08/12 04:05:30;;;;;;;16.37;10.87;;;;;;;;;;5116798;28;20285;-77
2021/08/12 04:07:57;;;;;;;14.97;10.20;;;;;;;;;;5116862;28;20284;-77
2021/08/12 04:10:25;;;;;;;12.77;11.03;;;;;;;;;;5116864;27;20363;-78
2021/08/12 04:12:53;;;;;;;14.20;10.93;;;;;;;;;;5117064;27;20197;-78
2021/08/12 04:15:20;;;;;;;13.80;10.73;;;;;;;;;;5116146;28;20198;-77
2021/08/12 04:17:47;;;;;;;12.37;10.37;;;;;;;;;;5115616;28;20288;-77
2021/08/12 04:20:14;;;;;;;13.47;10.93;;;;;;;;;;5116124;28;20201;-78
2021/08/12 04:22:41;;;;;;;14.07;11.07;;;;;;;;;;5115601;27;20588;-77
2021/08/12 04:25:09;;;;;;;13.23;10.70;;;;;;;;;;5116150;28;20620;-79
2021/08/12 04:27:39;;;;;;;15.47;10.87;;;;;;;;;;5115781;28;20549;-79
2021/08/12 04:30:07;;;;;;;14.47;10.53;;;;;;;;;;5115640;28;20707;-79
2021/08/12 04:32:35;;;;;;;14.30;10.57;;;;;;;;;;5115751;28;20285;-79
2021/08/12 04:35:03;;;;;;;16.47;11.00;;;;;;;;;;5115632;28;20209;-79
2021/08/12 04:37:36;;;;;;;12.77;10.50;;;;;;;;;;5115927;28;20236;-79
2021/08/12 04:40:04;;;;;;;11.70;10.30;;;;;;;;;;5115505;28;20276;-79
2021/08/12 04:42:31;;;;;;;12.53;10.40;;;;;;;;;;5115468;28;20636;-78
2021/08/12 04:44:59;;;;;;;13.63;9.90;;;;;;;;;;5115364;28;20757;-79
2021/08/12 04:47:26;;;;;;;14.93;11.33;;;;;;;;;;5115157;28;20225;-79
2021/08/12 04:49:54;;;;;;;14.17;10.70;;;;;;;;;;5115583;28;20317;-79
2021/08/12 04:52:21;;;;;;;14.43;11.23;;;;;;;;;;5115472;28;20224;-79
2021/08/12 04:54:48;;;;;;;14.50;10.40;;;;;;;;;;5115136;28;20647;-79
2021/08/12 04:57:16;;;;;;;14.93;10.43;;;;;;;;;;5114746;28;20771;-79
2021/08/12 04:59:43;;;;;;;13.00;10.83;;;;;;;;;;5114571;28;20642;-79
2021/08/12 05:02:12;;;;;;;11.17;9.93;;;;;;;;;;5114551;28;20198;-79
2021/08/12 05:04:39;;;;;;;14.87;10.20;;;;;;;;;;5114954;28;20202;-79
2021/08/12 05:07:06;;;;;;;11.70;9.87;;;;;;;;;;5115252;28;20285;-79
2021/08/12 05:09:33;;;;;;;13.33;9.90;;;;;;;;;;5115252;28;20304;-79
2021/08/12 05:12:01;;;;;;;14.70;10.23;;;;;;;;;;5114703;28;20224;-78
2021/08/12 05:14:28;;;;;;;14.13;10.27;;;;;;;;;;5114692;28;20292;-79
2021/08/12 05:16:55;;;;;;;14.77;9.70;;;;;;;;;;5115218;28;20281;-79
2021/08/12 05:19:24;;;;;;;12.63;9.73;;;;;;;;;;5115005;28;20284;-79
2021/08/12 05:21:51;;;;;;;15.50;10.37;;;;;;;;;;5114970;28;20193;-79
2021/08/12 05:24:18;;;;;;;11.93;9.97;;;;;;;;;;5114536;28;20304;-78
2021/08/12 05:26:45;;;;;;;14.27;10.63;;;;;;;;;;5114515;28;20284;-79
2021/08/12 05:29:13;;;;;;;12.20;9.97;;;;;;;;;;5114603;28;20284;-79
2021/08/12 05:31:40;;;;;;;11.13;9.63;;;;;;;;;;5114771;28;20309;-78
2021/08/12 05:34:07;;;;;;;11.37;9.80;;;;;;;;;;5114469;28;20288;-80
2021/08/12 05:36:35;;;;;;;15.00;10.17;;;;;;;;;;5114199;28;20233;-79
2021/08/12 05:39:03;;;;;;;12.40;9.30;;;;;;;;;;5114064;28;20285;-79
2021/08/12 05:41:30;;;;;;;14.80;10.27;;;;;;;;;;5122515;27;20292;-79
2021/08/12 05:43:57;;;;;;;12.10;9.30;;;;;;;;;;5134790;27;20207;-79
2021/08/12 05:46:25;;;;;;;10.57;8.87;;;;;;;;;;5134987;27;20292;-79
2021/08/12 05:48:52;;;;;;;10.97;8.87;;;;;;;;;;5134844;27;20289;-79
2021/08/12 05:51:19;;;;;;;10.03;8.60;;;;;;;;;;5134867;27;20319;-79
2021/08/12 05:53:47;;;;;;;10.80;7.90;;;;;;;;;;5134725;27;20268;-79
2021/08/12 05:56:14;;;;;;;10.30;8.57;;;;;;;;;;5134731;27;20193;-79
2021/08/12 05:58:42;;;;;;;9.67;7.60;;;;;;;;;;5134175;27;20242;-79
2021/08/12 06:01:09;;;;;;;9.57;8.40;;;;;;;;;;5134752;27;20284;-79
2021/08/12 06:03:36;;;;;;;10.77;7.63;;;;;;;;;;5134830;27;20568;-80
2021/08/12 06:06:03;;;;;;;11.93;7.90;;;;;;;;;;5134116;27;20672;-79
2021/08/12 06:08:30;;;;;;;9.93;8.33;;;;;;;;;;5134215;27;20304;-79
2021/08/12 06:10:59;;;;;;;7.87;7.03;;;;;;;;;;5134072;27;20730;-79
2021/08/12 06:13:26;;;;;;;8.73;7.30;;;;;;;;;;5134064;27;20291;-79
2021/08/12 06:15:53;;;;;;;11.35;7.55;;;;;;;;;;5134306;27;20207;-80
2021/08/12 06:18:22;;;;;;;8.40;7.28;;;;;;;;;;5134116;27;20289;-79
2021/08/12 06:20:50;;;;;;;10.43;7.00;;;;;;;;;;5134103;27;20275;-79
2021/08/12 06:23:17;;;;;;;8.05;6.90;;;;;;;;;;5134226;27;20283;-79
2021/08/12 06:25:44;;;;;;;9.68;6.57;;;;;;;;;;5134280;27;20239;-79
2021/08/12 06:28:13;;;;;;;7.53;6.82;;;;;;;;;;5133855;27;20200;-79
2021/08/12 06:30:40;;;;;;;6.65;6.00;;;;;;;;;;5134104;27;20320;-80
2021/08/12 06:33:08;;;;;;;8.95;6.63;;;;;;;;;;5133999;27;20214;-79
2021/08/12 06:35:35;;;;;;;6.20;5.60;;;;;;;;;;5133862;27;20225;-79
2021/08/12 06:38:04;;;;;;;7.47;6.03;;;;;;;;;;5133784;27;20197;-79
2021/08/12 06:40:31;;;;;;;6.10;5.47;;;;;;;;;;5133779;27;20657;-79
2021/08/12 06:42:58;;;;;;;6.82;5.63;;;;;;;;;;5113004;28;20292;-79
2021/08/12 06:45:27;;;;;;;6.53;5.75;;;;;;;;;;5112967;28;20244;-79
2021/08/12 06:47:54;;;;;;;6.93;5.45;;;;;;;;;;5112787;28;20284;-80
2021/08/12 06:50:22;;;;;;;7.28;5.95;;;;;;;;;;5112681;28;20247;-79
2021/08/12 06:52:49;;;;;;;7.57;5.63;;;;;;;;;;5113150;28;20289;-79
2021/08/12 06:55:17;;;;;;;6.40;5.40;;;;;;;;;;5113005;28;20250;-79
2021/08/12 06:57:44;;;;;;;8.40;5.60;;;;;;;;;;5112677;28;20236;-80
2021/08/12 07:00:12;;;;;;;8.32;5.32;;;;;;;;;;5112557;28;20290;-79
2021/08/12 07:02:41;;;;;;;5.82;5.22;;;;;;;;;;5112889;28;20672;-79
2021/08/12 07:05:09;;;;;;;7.00;4.97;;;;;;;;;;5112679;28;20197;-79
2021/08/12 07:07:36;;;;;;;5.30;4.75;;;;;;;;;;5112734;28;20229;-79
2021/08/12 07:10:03;;;;;;;7.28;5.40;;;;;;;;;;5112650;28;20768;-79
2021/08/12 07:12:31;;;;;;;6.35;5.68;;;;;;;;;;5112110;28;20708;-79
2021/08/12 07:14:58;;;;;;;6.07;5.43;;;;;;;;;;5112761;28;20217;-79
2021/08/12 07:17:28;;;;;;;5.85;5.35;;;;;;;;;;5113006;28;20284;-79
2021/08/12 07:19:56;;;;;;;6.88;5.50;;;;;;;;;;5112828;28;20201;-78
2021/08/12 07:22:24;;;;;;;6.53;5.55;;;;;;;;;;5112180;28;20232;-79
2021/08/12 07:24:51;;;;;;;6.72;5.30;;;;;;;;;;5112176;28;20233;-79
2021/08/12 07:27:18;;;;;;;8.45;6.07;;;;;;;;;;5112368;28;20285;-79
2021/08/12 07:29:45;;;;;;;9.45;6.00;;;;;;;;;;5112839;28;20281;-79
2021/08/12 07:32:12;;;;;;;6.93;5.70;;;;;;;;;;5112657;28;20641;-79
2021/08/12 07:34:40;;;;;;;6.32;5.38;;;;;;;;;;5112470;28;20768;-79
2021/08/12 07:37:08;;;;;;;7.95;6.45;;;;;;;;;;5112624;28;20280;-78
2021/08/12 07:39:35;;;;;;;6.90;5.55;;;;;;;;;;5112274;28;20233;-79
2021/08/12 07:42:02;;;;;;;6.63;5.45;;;;;;;;;;5125111;27;20232;-79
2021/08/12 07:44:30;;;;;;;6.20;5.60;;;;;;;;;;5133352;27;20283;-79
2021/08/12 07:46:57;;;;;;;7.47;6.20;;;;;;;;;;5132945;27;20289;-79
2021/08/12 07:49:24;;;;;;;6.82;5.72;;;;;;;;;;5132841;27;20292;-78
2021/08/12 07:51:51;;;;;;;7.57;5.97;;;;;;;;;;5133070;27;20231;-79
2021/08/12 07:54:20;;;;;;;6.65;5.35;;;;;;;;;;5132571;27;20339;-79
2021/08/12 07:56:48;;;;;;;6.85;5.55;;;;;;;;;;5132732;27;20669;-79
2021/08/12 07:59:16;;;;;;;8.93;5.50;;;;;;;;;;5132904;27;20201;-79
2021/08/12 08:01:43;;;;;;;5.53;5.00;;;;;;;;;;5132756;27;20288;-79
2021/08/12 08:04:10;;;;;;;7.43;5.97;;;;;;;;;;5132703;27;20207;-79
2021/08/12 08:06:37;;;;;;;9.55;6.15;;;;;;;;;;5133092;27;20221;-79
2021/08/12 08:09:04;;;;;;;6.93;6.10;;;;;;;;;;5132312;27;20320;-79
2021/08/12 08:11:33;;;;;;;6.93;6.10;;;;;;;;;;5132828;27;20316;-79
2021/08/12 08:14:00;;;;;;;7.35;5.82;;;;;;;;;;5132767;27;20309;-79
2021/08/12 08:16:28;;;;;;;8.90;5.75;;;;;;;;;;5132456;27;20283;-79
2021/08/12 08:18:55;;;;;;;6.57;5.82;;;;;;;;;;5132784;27;20352;-79
2021/08/12 08:21:22;;;;;;;7.00;5.82;;;;;;;;;;5132344;27;20292;-79
2021/08/12 08:23:50;;;;;;;7.53;5.88;;;;;;;;;;5132699;27;20198;-79
2021/08/12 08:26:17;;;;;;;6.22;5.63;;;;;;;;;;5132641;27;20589;-79
2021/08/12 08:28:45;;;;;;;6.68;6.07;;;;;;;;;;5132850;27;20303;-79
2021/08/12 08:31:13;;;;;;;7.03;5.80;;;;;;;;;;5132311;27;20307;-79
2021/08/12 08:33:40;;;;;;;6.50;5.38;;;;;;;;;;5133422;27;20299;-79
2021/08/12 08:36:07;;;;;;;8.45;4.63;;;;;;;;;;5136193;27;20292;-79
2021/08/12 08:38:34;;;;;;;6.15;5.25;;;;;;;;;;5136034;27;20288;-78
2021/08/12 08:41:02;;;;;;;5.00;4.50;;;;;;;;;;5135715;27;20321;-80
2021/08/12 08:43:31;;;;;;;5.95;5.35;;;;;;;;;;5136298;27;20236;-78
2021/08/12 08:46:00;;;;;;;5.80;5.20;;;;;;;;;;5135983;27;20193;-79
2021/08/12 08:48:28;;;;;;;6.45;5.40;;;;;;;;;;5135775;27;20739;-78
2021/08/12 08:50:56;;;;;;;5.80;5.10;;;;;;;;;;5135774;27;20236;-79
2021/08/12 08:53:23;;;;;;;6.85;5.10;;;;;;;;;;5135333;27;20281;-79
2021/08/12 08:55:51;;;;;;;5.43;4.93;;;;;;;;;;5135819;27;20295;-79
2021/08/12 08:58:20;;;;;;;7.47;5.25;;;;;;;;;;5135800;27;20197;-78
2021/08/12 09:00:47;;;;;;;7.65;5.32;;;;;;;;;;5135766;27;20197;-79
2021/08/12 09:03:16;;;;;;;6.55;5.95;;;;;;;;;;5135789;27;20629;-79
2021/08/12 09:05:43;;;;;;;7.28;5.80;;;;;;;;;;5135629;27;20287;-79
2021/08/12 09:08:10;;;;;;;6.47;5.30;;;;;;;;;;5135267;27;20300;-79
2021/08/12 09:10:38;;;;;;;7.47;5.70;;;;;;;;;;5135711;27;20292;-79
2021/08/12 09:13:06;;;;;;;7.20;5.60;;;;;;;;;;5135705;27;20239;-79
2021/08/12 09:15:40;;;;;;;6.53;5.47;;;;;;;;;;5135205;27;20635;-79
2021/08/12 09:18:19;;;;;;;7.80;5.38;;;;;;;;;;5135955;27;20193;-79
2021/08/12 09:20:49;;;;;;;6.75;5.65;;;;;;;;;;5135330;27;20292;-79
2021/08/12 09:23:16;;;;;;;6.13;5.15;;;;;;;;;;5135835;27;20197;-79
2021/08/12 09:25:47;;;;;;;6.38;5.20;;;;;;;;;;5136158;27;20801;-79
2021/08/12 09:28:16;;;;;;;5.65;5.05;;;;;;;;;;5136175;27;20687;-79
2021/08/12 09:30:44;;;;;;;6.95;5.97;;;;;;;;;;5135460;27;20201;-80
2021/08/12 09:33:15;;;;;;;6.10;5.30;;;;;;;;;;5134791;27;20224;-79
2021/08/12 09:35:42;;;;;;;7.10;6.10;;;;;;;;;;5134953;27;20201;-80
2021/08/12 09:38:13;;;;;;;7.97;6.20;;;;;;;;;;5134868;27;20297;-79
2021/08/12 09:40:40;;;;;;;8.40;6.40;;;;;;;;;;5133475;27;20664;-79
2021/08/12 09:43:08;;;;;;;7.07;6.00;;;;;;;;;;5114552;28;20217;-79
2021/08/12 09:45:36;;;;;;;7.68;6.47;;;;;;;;;;5113970;28;21406;-79
2021/08/12 09:48:11;;;;;;;6.47;5.88;;;;;;;;;;5114735;28;20285;-79
2021/08/12 09:50:39;;;;;;;8.38;6.40;;;;;;;;;;5114266;28;20208;-79
2021/08/12 09:53:07;;;;;;;7.00;6.35;;;;;;;;;;5114052;28;20320;-79
2021/08/12 09:55:39;;;;;;;6.57;5.97;;;;;;;;;;5115053;28;20284;-80
2021/08/12 09:58:08;;;;;;;6.70;6.00;;;;;;;;;;5114524;28;20236;-79
2021/08/12 10:00:38;;;;;;;8.82;7.35;;;;;;;;;;5113948;28;20194;-79
2021/08/12 10:03:24;;;;;;;7.97;7.18;;;;;;;;;;5114072;28;20190;-79
2021/08/12 10:05:51;;;;;;;7.32;6.63;;;;;;;;;;5113921;28;20262;-79
2021/08/12 10:08:32;;;;;;;7.88;7.07;;;;;;;;;;5114230;28;20308;-79
2021/08/12 10:11:16;;;;;;;8.00;7.18;;;;;;;;;;5114064;28;20254;-80
2021/08/12 10:13:44;;;;;;;8.82;7.13;;;;;;;;;;5114022;28;20228;-79
2021/08/12 10:16:12;;;;;;;7.43;6.70;;;;;;;;;;5114841;28;20280;-79
2021/08/12 10:18:40;;;;;;;8.73;6.90;;;;;;;;;;5114232;28;20220;-80
2021/08/12 10:21:07;;;;;;;9.20;7.18;;;;;;;;;;5113591;28;20289;-79
2021/08/12 10:23:35;;;;;;;7.10;6.32;;;;;;;;;;5114017;28;20228;-79
2021/08/12 10:26:03;;;;;;;7.03;6.30;;;;;;;;;;5113859;28;20290;-79
2021/08/12 10:28:34;;;;;;;6.72;6.03;;;;;;;;;;5113942;28;20288;-80
2021/08/12 10:31:03;;;;;;;8.52;6.40;;;;;;;;;;5113977;28;20632;-80
2021/08/12 10:33:30;;;;;;;6.80;6.20;;;;;;;;;;5113098;28;20739;-79
2021/08/12 10:35:58;;;;;;;6.60;5.60;;;;;;;;;;5113772;27;20586;-79
2021/08/12 10:38:25;;;;;;;6.68;6.07;;;;;;;;;;5113257;28;20293;-80
2021/08/12 10:40:53;;;;;;;8.20;6.82;;;;;;;;;;5116034;27;20281;-80
2021/08/12 10:43:21;;;;;;;7.40;6.43;;;;;;;;;;5134223;27;20192;-80
2021/08/12 10:45:54;;;;;;;8.15;6.82;;;;;;;;;;5133778;27;20228;-80
2021/08/12 10:48:24;;;;;;;8.50;6.38;;;;;;;;;;5133390;27;20204;-80
2021/08/12 10:51:01;;;;;;;6.43;5.82;;;;;;;;;;5133526;27;20656;-80
2021/08/12 10:53:29;;;;;;;6.88;5.68;;;;;;;;;;5133059;27;20235;-80
2021/08/12 10:56:06;;;;;;;6.78;6.07;;;;;;;;;;5132473;27;20561;-80
2021/08/12 10:58:37;;;;;;;7.13;6.43;;;;;;;;;;5133643;27;20291;-80
2021/08/12 11:01:06;;;;;;;10.15;6.50;;;;;;;;;;5133304;27;20253;-80
2021/08/12 11:03:45;;;;;;;7.63;6.80;;;;;;;;;;5133199;27;20200;-80
2021/08/12 11:06:14;;;;;;;7.28;6.57;;;;;;;;;;5133276;27;20283;-80
2021/08/12 11:08:59;;;;;;;8.85;7.95;;;;;;;;;;5133419;27;20307;-80
2021/08/12 11:11:45;;;;;;;8.63;7.72;;;;;;;;;;5133366;27;20650;-80
2021/08/12 11:14:12;;;;;;;10.73;9.63;;;;;;;;;;5133175;27;20241;-80
2021/08/12 11:16:55;;;;;;;10.27;9.27;;;;;;;;;;5133373;27;20284;-80
2021/08/12 11:19:36;;;;;;;9.55;8.65;;;;;;;;;;5133424;27;20557;-80
2021/08/12 11:22:04;;;;;;;9.05;8.25;;;;;;;;;;5133774;27;20196;-80
2021/08/12 11:24:46;;;;;;;8.40;7.60;;;;;;;;;;5133194;27;20643;-80
2021/08/12 11:27:13;;;;;;;8.65;7.72;;;;;;;;;;5130865;27;20747;-80
2021/08/12 11:29:40;;;;;;;8.82;7.88;;;;;;;;;;5133354;27;20227;-80
2021/08/12 11:32:10;;;;;;;7.90;7.10;;;;;;;;;;5132916;27;20304;-80
2021/08/12 11:34:41;;;;;;;7.65;6.82;;;;;;;;;;5133204;27;20201;-80
2021/08/12 11:37:13;;;;;;;9.23;7.20;;;;;;;;;;5133141;27;20204;-80
2021/08/12 11:39:47;;;;;;;7.55;6.85;;;;;;;;;;5132979;27;20197;-80
2021/08/12 11:42:21;;;;;;;7.82;7.13;;;;;;;;;;5132987;27;20236;-79
2021/08/12 11:44:49;;;;;;;7.55;6.82;;;;;;;;;;5132941;27;20197;-80
2021/08/12 11:47:16;;;;;;;7.85;7.05;;;;;;;;;;5132528;27;20295;-80
2021/08/12 11:49:49;;;;;;;6.65;5.97;;;;;;;;;;5132522;27;20686;-80
2021/08/12 11:52:22;;;;;;;7.10;5.82;;;;;;;;;;5132753;27;20675;-80
2021/08/12 11:54:54;;;;;;;6.10;5.50;;;;;;;;;;5133127;27;20728;-80
2021/08/12 11:57:21;;;;;;;7.15;5.63;;;;;;;;;;5133720;27;20439;-80
2021/08/12 11:59:48;;;;;;;6.85;6.15;;;;;;;;;;5133789;27;20288;-80
2021/08/12 12:02:15;;;;;;;5.97;5.40;;;;;;;;;;5132840;27;20283;-80
2021/08/12 12:04:43;;;;;;;6.28;5.75;;;;;;;;;;5132603;27;20284;-80
2021/08/12 12:07:11;;;;;;;6.72;5.43;;;;;;;;;;5133460;27;20281;-80
2021/08/12 12:09:38;;;;;;;7.75;5.57;;;;;;;;;;5136458;27;20784;-80
2021/08/12 12:12:08;;;;;;;6.32;5.72;;;;;;;;;;5136616;27;20664;-80
2021/08/12 12:14:37;;;;;;;6.90;6.20;;;;;;;;;;5136952;27;20621;-80
2021/08/12 12:17:17;;;;;;;6.38;5.78;;;;;;;;;;5136691;27;20220;-80
2021/08/12 12:20:03;;;;;;;6.40;5.85;;;;;;;;;;5136467;27;20619;-80
2021/08/12 12:22:32;;;;;;;7.47;6.32;;;;;;;;;;5136424;27;20659;-80
2021/08/12 12:24:59;;;;;;;6.30;5.70;;;;;;;;;;5136909;27;20220;-80
2021/08/12 12:27:27;;;;;;;8.88;6.10;;;;;;;;;;5136262;27;20243;-80
2021/08/12 12:29:55;;;;;;;9.88;6.32;;;;;;;;;;5136263;27;20201;-80
2021/08/12 12:32:22;;;;;;;7.82;6.30;;;;;;;;;;5136336;27;20786;-80
2021/08/12 12:34:50;;;;;;;6.78;6.00;;;;;;;;;;5136436;27;20288;-80
2021/08/12 12:37:17;;;;;;;7.35;5.80;;;;;;;;;;5136090;27;20672;-80
2021/08/12 12:39:46;;;;;;;6.57;5.88;;;;;;;;;;5136398;27;20283;-80
2021/08/12 12:42:14;;;;;;;6.97;6.28;;;;;;;;;;5122180;27;20297;-80
2021/08/12 12:44:55;;;;;;;6.88;6.05;;;;;;;;;;5115272;28;20679;-80
2021/08/12 12:47:26;;;;;;;6.20;5.60;;;;;;;;;;5115151;28;20731;-80
2021/08/12 12:50:04;;;;;;;6.28;5.68;;;;;;;;;;5115594;28;20204;-80
2021/08/12 12:52:31;;;;;;;5.60;5.10;;;;;;;;;;5115331;27;20228;-80
2021/08/12 12:55:00;;;;;;;6.60;5.22;;;;;;;;;;5115594;28;20325;-80
2021/08/12 12:57:31;;;;;;;5.40;4.78;;;;;;;;;;5115964;28;20291;-80
2021/08/12 12:59:58;;;;;;;8.38;5.80;;;;;;;;;;5115714;28;20284;-80
2021/08/12 13:02:25;;;;;;;5.75;5.00;;;;;;;;;;5115766;28;20313;-80
2021/08/12 13:04:57;;;;;;;7.13;5.90;;;;;;;;;;5115782;28;20288;-80
2021/08/12 13:07:24;;;;;;;8.52;5.85;;;;;;;;;;5115853;28;20212;-80
2021/08/12 13:09:51;;;;;;;6.70;5.60;;;;;;;;;;5115920;28;20217;-80
2021/08/12 13:12:26;;;;;;;6.00;5.50;;;;;;;;;;5115752;28;20288;-80
2021/08/12 13:15:08;;;;;;;7.03;5.32;;;;;;;;;;5115619;28;20576;-80
2021/08/12 13:17:35;;;;;;;5.72;5.20;;;;;;;;;;5114959;28;20689;-80
2021/08/12 13:20:09;;;;;;;6.65;5.90;;;;;;;;;;5113838;28;20699;-80
2021/08/12 13:22:39;;;;;;;7.72;5.43;;;;;;;;;;5114967;28;20198;-80
2021/08/12 13:25:11;;;;;;;6.90;5.22;;;;;;;;;;5114909;28;20206;-80
2021/08/12 13:27:43;;;;;;;5.75;5.15;;;;;;;;;;5114356;28;20292;-80
2021/08/12 13:30:11;;;;;;;6.47;5.78;;;;;;;;;;5114917;28;20201;-80
2021/08/12 13:32:38;;;;;;;6.00;5.40;;;;;;;;;;5114463;28;20720;-80
2021/08/12 13:35:05;;;;;;;7.53;5.20;;;;;;;;;;5114331;28;20748;-80
2021/08/12 13:37:33;;;;;;;6.72;5.40;;;;;;;;;;5114331;28;20244;-80
2021/08/12 13:40:00;;;;;;;6.22;5.63;;;;;;;;;;5114254;28;20255;-80
2021/08/12 13:42:27;;;;;;;6.88;6.18;;;;;;;;;;5130099;27;20209;-80
2021/08/12 13:44:55;;;;;;;5.57;5.07;;;;;;;;;;5134864;27;20287;-80
2021/08/12 13:47:23;;;;;;;6.55;5.88;;;;;;;;;;5134543;27;20201;-80
2021/08/12 13:49:50;;;;;;;5.90;5.40;;;;;;;;;;5135084;27;20292;-80
2021/08/12 13:52:17;;;;;;;5.88;5.05;;;;;;;;;;5134791;27;20235;-80
2021/08/12 13:54:46;;;;;;;6.22;5.57;;;;;;;;;;5134777;27;20240;-80
2021/08/12 13:57:13;;;;;;;5.72;4.88;;;;;;;;;;5134571;27;20578;-80
2021/08/12 13:59:40;;;;;;;6.55;5.38;;;;;;;;;;5134657;27;20288;-80
2021/08/12 14:02:09;;;;;;;5.85;5.28;;;;;;;;;;5134457;27;20309;-80
2021/08/12 14:04:36;;;;;;;6.05;5.13;;;;;;;;;;5134718;27;20296;-80
2021/08/12 14:07:04;;;;;;;8.20;5.30;;;;;;;;;;5134458;27;20628;-80
2021/08/12 14:09:31;;;;;;;7.00;5.80;;;;;;;;;;5134594;27;20684;-80
2021/08/12 14:11:58;;;;;;;5.90;5.40;;;;;;;;;;5134153;27;20203;-80
2021/08/12 14:14:25;;;;;;;6.03;4.95;;;;;;;;;;5133393;27;20308;-80
2021/08/12 14:16:53;;;;;;;6.85;5.32;;;;;;;;;;5134481;27;20201;-80
2021/08/12 14:19:21;;;;;;;6.53;5.88;;;;;;;;;;5134000;27;20564;-79
2021/08/12 14:21:48;;;;;;;6.68;5.45;;;;;;;;;;5134113;27;20292;-80
2021/08/12 14:24:16;;;;;;;6.43;5.80;;;;;;;;;;5134119;27;20197;-79
2021/08/12 14:26:43;;;;;;;6.28;5.68;;;;;;;;;;5134318;27;20287;-80
2021/08/12 14:29:12;;;;;;;6.80;5.43;;;;;;;;;;5134301;27;20201;-80
2021/08/12 14:31:39;;;;;;;6.20;5.60;;;;;;;;;;5134084;27;20193;-79
2021/08/12 14:34:08;;;;;;;6.38;5.07;;;;;;;;;;5133845;27;20590;-80
2021/08/12 14:36:37;;;;;;;5.95;5.32;;;;;;;;;;5134101;27;20204;-80
2021/08/12 14:39:05;;;;;;;6.07;5.57;;;;;;;;;;5133745;27;20204;-79
2021/08/12 14:41:33;;;;;;;7.68;5.70;;;;;;;;;;5133470;27;20221;-79